createdAt,value
2023-03-16T00:01:08.944Z,101030.65
2023-03-16T00:04:37.813Z,101032.40
2023-03-16T00:08:05.869Z,101036.50
2023-03-16T00:11:32.886Z,101039.95
2023-03-16T00:15:00.178Z,101041.04
2023-03-16T00:18:29.448Z,101043.39
2023-03-16T00:21:56.612Z,101044.29
2023-03-16T00:25:24.470Z,101047.73
2023-03-16T00:28:54.383Z,101047.68
2023-03-16T00:32:24.008Z,101049.20
2023-03-16T00:35:51.413Z,101046.55
2023-03-16T00:39:18.517Z,101043.27
2023-03-16T00:42:47.357Z,101044.05
2023-03-16T00:46:16.192Z,101043.10
2023-03-16T00:49:45.608Z,101047.77
2023-03-16T00:53:12.853Z,101051.48
2023-03-16T00:56:39.879Z,101050.25
2023-03-16T01:00:13.043Z,101051.04
2023-03-16T01:03:41.150Z,101050.39
2023-03-16T01:07:09.120Z,101055.16
2023-03-16T01:10:36.959Z,101055.88
2023-03-16T01:14:04.222Z,101064.38
2023-03-16T01:17:35.143Z,101069.11
2023-03-16T01:21:03.787Z,101076.44
2023-03-16T01:24:34.818Z,101079.56
2023-03-16T01:28:01.897Z,101083.55
2023-03-16T01:31:30.413Z,101087.81
2023-03-16T01:34:57.599Z,101087.51
2023-03-16T01:38:25.700Z,101092.73
2023-03-16T01:41:53.481Z,101095.59
2023-03-16T01:45:55.670Z,101093.67
2023-03-16T01:49:29.260Z,101091.63
2023-03-16T01:52:56.836Z,101095.19
2023-03-16T01:56:28.929Z,101093.42
2023-03-16T02:00:09.278Z,101096.00
2023-03-16T02:03:43.453Z,101092.50
2023-03-16T02:07:19.420Z,101096.38
2023-03-16T02:10:47.024Z,101102.30
2023-03-16T02:14:15.389Z,101102.13
2023-03-16T02:17:45.670Z,101102.02
2023-03-16T02:21:20.808Z,101103.58
2023-03-16T02:24:48.124Z,101109.73
2023-03-16T02:28:23.430Z,101109.61
2023-03-16T02:31:52.096Z,101107.63
2023-03-16T02:35:19.516Z,101108.91
2023-03-16T02:38:46.741Z,101110.76
2023-03-16T02:42:19.874Z,101110.20
2023-03-16T02:45:52.296Z,101112.79
2023-03-16T02:49:25.938Z,101116.10
2023-03-16T02:52:53.252Z,101117.23
2023-03-16T02:56:20.577Z,101118.45
2023-03-16T02:59:47.962Z,101121.54
2023-03-16T03:03:15.695Z,101120.65
2023-03-16T03:06:43.224Z,101121.14
2023-03-16T03:10:12.104Z,101120.91
2023-03-16T03:13:39.389Z,101125.31
2023-03-16T03:17:13.401Z,101123.20
2023-03-16T03:20:40.790Z,101123.21
2023-03-16T03:24:09.125Z,101130.34
2023-03-16T03:27:37.640Z,101135.31
2023-03-16T03:31:07.315Z,101141.98
2023-03-16T03:34:35.331Z,101145.77
2023-03-16T03:38:02.821Z,101141.80
2023-03-16T03:41:30.735Z,101137.93
2023-03-16T03:44:58.714Z,101135.98
2023-03-16T03:48:26.498Z,101138.56
2023-03-16T03:51:54.160Z,101141.42
2023-03-16T03:55:25.527Z,101142.11
2023-03-16T03:58:52.780Z,101142.02
2023-03-16T04:02:30.095Z,101146.06
2023-03-16T04:05:58.982Z,101144.73
2023-03-16T04:09:26.550Z,101143.48
2023-03-16T04:12:54.228Z,101142.81
2023-03-16T04:16:22.280Z,101142.16
2023-03-16T04:19:52.780Z,101139.52
2023-03-16T04:23:20.058Z,101147.05
2023-03-16T04:26:48.934Z,101151.83
2023-03-16T04:30:18.195Z,101154.30
2023-03-16T04:33:49.698Z,101155.98
2023-03-16T04:37:17.463Z,101160.89
2023-03-16T04:40:45.230Z,101160.38
2023-03-16T04:44:16.490Z,101165.52
2023-03-16T04:47:44.326Z,101169.13
2023-03-16T04:51:12.377Z,101173.14
2023-03-16T04:54:43.758Z,101173.38
2023-03-16T04:58:14.967Z,101174.64
2023-03-16T05:01:43.760Z,101176.13
2023-03-16T05:05:10.949Z,101174.84
2023-03-16T05:08:39.576Z,101177.52
2023-03-16T05:12:07.421Z,101178.27
2023-03-16T05:15:35.317Z,101182.55
2023-03-16T05:19:15.508Z,101182.76
2023-03-16T05:22:45.851Z,101186.08
2023-03-16T05:26:26.763Z,101186.17
2023-03-16T05:29:54.773Z,101184.48
2023-03-16T05:33:22.526Z,101190.52
2023-03-16T05:36:53.037Z,101191.85
2023-03-16T05:40:23.197Z,101191.77
2023-03-16T05:44:00.897Z,101189.14
2023-03-16T05:47:36.741Z,101193.30
2023-03-16T05:51:07.678Z,101196.23
2023-03-16T05:54:34.927Z,101197.80
2023-03-16T05:58:05.148Z,101197.06
2023-03-16T06:01:34.955Z,101197.97
2023-03-16T06:05:03.007Z,101201.48
2023-03-16T06:08:30.611Z,101200.80
2023-03-16T06:12:05.084Z,101203.81
2023-03-16T06:15:33.050Z,101207.69
2023-03-16T06:19:01.687Z,101202.59
2023-03-16T06:22:30.428Z,101202.09
2023-03-16T06:25:59.652Z,101201.33
2023-03-16T06:29:25.957Z,101202.55
2023-03-16T06:32:53.627Z,101199.52
2023-03-16T06:36:21.577Z,101201.17
2023-03-16T06:39:52.751Z,101198.84
2023-03-16T06:43:20.212Z,101198.92
2023-03-16T06:46:47.505Z,101204.66
2023-03-16T06:50:15.696Z,101200.11
2023-03-16T06:53:42.847Z,101207.06
2023-03-16T06:57:10.653Z,101214.16
2023-03-16T07:00:38.164Z,101216.52
2023-03-16T07:04:05.429Z,101218.32
2023-03-16T07:07:33.802Z,101215.10
2023-03-16T07:11:01.490Z,101216.61
2023-03-16T07:14:29.128Z,101224.63
2023-03-16T07:17:57.025Z,101226.44
2023-03-16T07:21:25.229Z,101231.29
2023-03-16T07:24:57.322Z,101232.61
2023-03-16T07:28:25.069Z,101233.30
2023-03-16T07:31:53.823Z,101237.81
2023-03-16T07:35:24.506Z,101244.98
2023-03-16T07:38:51.973Z,101250.55
2023-03-16T07:42:19.961Z,101248.05
2023-03-16T07:45:55.095Z,101248.14
2023-03-16T07:49:23.219Z,101248.24
2023-03-16T07:52:51.093Z,101249.85
2023-03-16T07:56:18.375Z,101257.34
2023-03-16T07:59:47.580Z,101261.68
2023-03-16T08:03:16.495Z,101267.09
2023-03-16T08:06:45.551Z,101269.27
2023-03-16T08:10:14.387Z,101270.45
2023-03-16T08:13:47.250Z,101272.69
2023-03-16T08:17:15.754Z,101270.83
2023-03-16T08:20:44.667Z,101270.54
2023-03-16T08:24:12.382Z,101280.51
2023-03-16T08:27:40.496Z,101281.88
2023-03-16T08:31:10.738Z,101286.20
2023-03-16T08:34:44.040Z,101285.23
2023-03-16T08:38:11.712Z,101288.13
2023-03-16T08:41:41.341Z,101286.02
2023-03-16T08:45:15.587Z,101290.45
2023-03-16T08:48:43.878Z,101289.86
2023-03-16T08:52:12.983Z,101289.27
2023-03-16T08:55:41.629Z,101293.48
2023-03-16T08:59:16.833Z,101293.36
2023-03-16T09:02:50.731Z,101293.38
2023-03-16T09:06:20.136Z,101301.02
2023-03-16T09:09:47.774Z,101302.04
2023-03-16T09:13:14.967Z,101303.58
2023-03-16T09:16:42.307Z,101309.65
2023-03-16T09:20:22.326Z,101312.35
2023-03-16T09:23:54.556Z,101315.52
2023-03-16T09:27:22.590Z,101314.52
2023-03-16T09:30:50.101Z,101315.69
2023-03-16T09:34:16.881Z,101316.58
2023-03-16T09:37:45.609Z,101316.93
2023-03-16T09:41:33.008Z,101320.23
2023-03-16T09:45:15.758Z,101320.70
2023-03-16T09:48:42.696Z,101314.69
2023-03-16T09:52:20.646Z,101315.36
2023-03-16T09:55:51.996Z,101312.84
2023-03-16T09:59:19.442Z,101322.20
2023-03-16T10:03:01.791Z,101324.06
2023-03-16T10:06:29.727Z,101336.23
2023-03-16T10:10:00.105Z,101343.81
2023-03-16T10:13:36.267Z,101349.58
2023-03-16T10:17:08.385Z,101351.01
2023-03-16T10:20:36.602Z,101349.39
2023-03-16T10:24:06.688Z,101346.64
2023-03-16T10:27:36.648Z,101346.40
2023-03-16T10:31:04.762Z,101346.56
2023-03-16T10:34:32.323Z,101348.97
2023-03-16T10:38:00.222Z,101350.19
2023-03-16T10:41:32.083Z,101347.89
2023-03-16T10:45:03.550Z,101346.58
2023-03-16T10:48:34.169Z,101338.67
2023-03-16T10:52:07.714Z,101337.83
2023-03-16T10:55:45.851Z,101339.23
2023-03-16T10:59:32.084Z,101336.30
2023-03-16T11:03:01.265Z,101334.78
2023-03-16T11:06:31.560Z,101333.13
2023-03-16T11:09:59.760Z,101331.36
2023-03-16T11:13:34.485Z,101338.11
2023-03-16T11:17:06.270Z,101336.68
2023-03-16T11:20:36.162Z,101340.60
2023-03-16T11:24:06.955Z,101338.95
2023-03-16T11:27:38.882Z,101331.54
2023-03-16T11:31:18.351Z,101325.50
2023-03-16T11:34:48.794Z,101326.21
2023-03-16T11:38:20.008Z,101328.98
2023-03-16T11:41:57.451Z,101334.71
2023-03-16T11:45:30.138Z,101331.33
2023-03-16T11:49:12.967Z,101333.97
2023-03-16T11:52:50.676Z,101333.86
2023-03-16T11:56:27.508Z,101335.02
2023-03-16T12:00:11.348Z,101338.99
2023-03-16T12:04:18.380Z,101336.58
2023-03-16T12:07:59.062Z,101338.00
2023-03-16T12:11:29.916Z,101337.26
2023-03-16T12:15:14.194Z,101326.45
2023-03-16T12:18:47.167Z,101332.79
2023-03-16T12:22:21.666Z,101331.69
2023-03-16T12:25:51.527Z,101332.54
2023-03-16T12:29:32.293Z,101329.30
2023-03-16T12:33:10.973Z,101330.31
2023-03-16T12:37:02.732Z,101330.14
2023-03-16T12:40:41.280Z,101329.23
2023-03-16T12:44:17.724Z,101332.95
2023-03-16T12:47:54.819Z,101329.23
2023-03-16T12:51:22.199Z,101325.98
2023-03-16T12:55:07.898Z,101326.38
2023-03-16T12:58:36.005Z,101323.19
2023-03-16T13:02:06.843Z,101321.83
2023-03-16T13:05:36.621Z,101322.86
2023-03-16T13:09:09.652Z,101327.44
2023-03-16T13:12:41.774Z,101331.80
2023-03-16T13:16:12.861Z,101330.64
2023-03-16T13:19:40.472Z,101331.61
2023-03-16T13:23:23.896Z,101332.04
2023-03-16T13:26:54.546Z,101332.96
2023-03-16T13:30:25.485Z,101333.89
2023-03-16T13:33:56.865Z,101335.67
2023-03-16T13:37:25.300Z,101334.28
2023-03-16T13:40:56.661Z,101334.94
2023-03-16T13:44:26.274Z,101335.95
2023-03-16T13:47:55.997Z,101338.38
2023-03-16T13:51:24.487Z,101337.25
2023-03-16T13:54:53.754Z,101333.04
2023-03-16T13:58:27.762Z,101328.80
2023-03-16T14:02:01.703Z,101326.30
2023-03-16T14:05:31.139Z,101327.52
2023-03-16T14:09:01.453Z,101332.70
2023-03-16T14:12:28.603Z,101327.12
2023-03-16T14:15:57.157Z,101322.46
2023-03-16T14:19:32.496Z,101323.81
2023-03-16T14:23:00.040Z,101319.01
2023-03-16T14:26:27.916Z,101317.40
2023-03-16T14:30:00.682Z,101323.20
2023-03-16T14:33:31.721Z,101318.79
2023-03-16T14:37:11.977Z,101317.39
2023-03-16T14:40:40.499Z,101317.84
2023-03-16T14:44:18.329Z,101314.73
2023-03-16T14:47:47.820Z,101313.67
2023-03-16T14:51:16.433Z,101311.70
2023-03-16T14:54:43.519Z,101311.50
2023-03-16T14:58:12.172Z,101315.72
2023-03-16T15:01:39.447Z,101312.82
2023-03-16T15:05:09.280Z,101309.63
2023-03-16T15:08:44.546Z,101312.34
2023-03-16T15:12:18.121Z,101308.38
2023-03-16T15:15:48.596Z,101308.56
2023-03-16T15:19:16.283Z,101306.84
2023-03-16T15:22:44.911Z,101303.77
2023-03-16T15:26:15.100Z,101310.08
2023-03-16T15:29:42.397Z,101308.75
2023-03-16T15:33:10.913Z,101308.77
2023-03-16T15:36:38.245Z,101312.25
2023-03-16T15:40:14.730Z,101313.30
2023-03-16T15:43:41.981Z,101314.39
2023-03-16T15:47:09.724Z,101315.67
2023-03-16T15:50:37.396Z,101317.56
2023-03-16T15:54:06.055Z,101320.20
2023-03-16T15:57:33.614Z,101319.27
2023-03-16T16:01:02.927Z,101319.75
2023-03-16T16:04:30.053Z,101318.45
2023-03-16T16:07:57.862Z,101315.30
2023-03-16T16:11:27.747Z,101321.15
2023-03-16T16:14:56.357Z,101319.38
2023-03-16T16:18:32.482Z,101325.92
2023-03-16T16:21:59.498Z,101326.31
2023-03-16T16:25:28.948Z,101327.33
2023-03-16T16:28:58.589Z,101321.17
2023-03-16T16:32:27.496Z,101323.82
2023-03-16T16:35:55.668Z,101333.86
2023-03-16T16:39:23.161Z,101338.05
2023-03-16T16:42:51.990Z,101338.43
2023-03-16T16:46:22.663Z,101337.02
2023-03-16T16:49:51.232Z,101339.94
2023-03-16T16:53:21.904Z,101343.67
2023-03-16T16:56:50.355Z,101345.66
2023-03-16T17:00:24.730Z,101352.13
2023-03-16T17:03:52.100Z,101348.77
2023-03-16T17:07:19.804Z,101350.65
2023-03-16T17:10:48.700Z,101354.30
2023-03-16T17:14:27.984Z,101358.25
2023-03-16T17:17:59.494Z,101358.12
2023-03-16T17:21:29.974Z,101361.23
2023-03-16T17:24:57.617Z,101362.91
2023-03-16T17:28:27.105Z,101362.78
2023-03-16T17:31:54.242Z,101367.16
2023-03-16T17:35:21.839Z,101372.23
2023-03-16T17:38:50.050Z,101373.34
2023-03-16T17:42:19.673Z,101370.74
2023-03-16T17:45:48.956Z,101369.00
2023-03-16T17:49:17.708Z,101368.01
2023-03-16T17:52:45.238Z,101366.06
2023-03-16T17:56:22.906Z,101368.25
2023-03-16T17:59:51.630Z,101373.95
2023-03-16T18:03:20.443Z,101373.85
2023-03-16T18:06:49.120Z,101374.96
2023-03-16T18:10:20.170Z,101375.01
2023-03-16T18:13:49.267Z,101378.30
2023-03-16T18:17:33.336Z,101383.43
2023-03-16T18:21:03.812Z,101385.67
2023-03-16T18:24:33.960Z,101385.98
2023-03-16T18:28:01.855Z,101383.33
2023-03-16T18:31:31.116Z,101379.86
2023-03-16T18:35:01.284Z,101382.38
2023-03-16T18:38:33.125Z,101383.33
2023-03-16T18:42:03.148Z,101383.09
2023-03-16T18:45:31.787Z,101385.48
2023-03-16T18:49:02.203Z,101389.95
2023-03-16T18:52:32.786Z,101394.61
2023-03-16T18:55:59.803Z,101391.27
2023-03-16T18:59:27.977Z,101393.46
2023-03-16T19:02:59.550Z,101400.89
2023-03-16T19:06:30.495Z,101401.97
2023-03-16T19:09:57.596Z,101402.88
2023-03-16T19:13:26.184Z,101411.92
2023-03-16T19:16:54.150Z,101409.77
2023-03-16T19:20:24.674Z,101406.58
2023-03-16T19:23:58.184Z,101413.17
2023-03-16T19:27:29.685Z,101412.84
2023-03-16T19:30:57.281Z,101417.38
2023-03-16T19:34:24.607Z,101420.55
2023-03-16T19:37:52.023Z,101422.52
2023-03-16T19:41:26.980Z,101426.52
2023-03-16T19:44:54.714Z,101426.86
2023-03-16T19:48:26.495Z,101422.64
2023-03-16T19:51:55.330Z,101423.05
2023-03-16T19:55:26.258Z,101423.41
2023-03-16T19:58:54.684Z,101419.33
2023-03-16T20:02:28.736Z,101415.42
2023-03-16T20:05:56.724Z,101414.45
2023-03-16T20:09:26.488Z,101419.61
2023-03-16T20:12:58.435Z,101417.11
2023-03-16T20:16:30.383Z,101408.50
2023-03-16T20:19:58.921Z,101399.48
2023-03-16T20:23:28.191Z,101402.63
2023-03-16T20:26:55.855Z,101385.17
2023-03-16T20:30:23.940Z,101381.80
2023-03-16T20:33:52.501Z,101377.50
2023-03-16T20:37:27.469Z,101382.81
2023-03-16T20:40:56.251Z,101386.11
2023-03-16T20:44:25.925Z,101383.50
2023-03-16T20:47:56.826Z,101392.85
2023-03-16T20:51:24.764Z,101391.73
2023-03-16T20:54:52.518Z,101387.48
2023-03-16T20:58:24.445Z,101381.91
2023-03-16T21:01:54.688Z,101368.19
2023-03-16T21:05:22.788Z,101361.79
2023-03-16T21:08:49.974Z,101356.98
2023-03-16T21:12:24.737Z,101357.67
2023-03-16T21:15:52.634Z,101369.35
2023-03-16T21:19:21.697Z,101367.95
2023-03-16T21:22:48.845Z,101374.27
2023-03-16T21:26:21.459Z,101372.78
2023-03-16T21:29:48.995Z,101373.48
2023-03-16T21:33:21.593Z,101383.23
2023-03-16T21:36:48.591Z,101384.39
2023-03-16T21:40:23.656Z,101377.75
2023-03-16T21:43:52.116Z,101378.67
2023-03-16T21:47:26.356Z,101374.27
2023-03-16T21:50:54.542Z,101374.91
2023-03-16T21:54:21.814Z,101374.88
2023-03-16T21:57:49.748Z,101373.33
2023-03-16T22:01:24.806Z,101380.44
2023-03-16T22:04:53.215Z,101388.07
2023-03-16T22:08:22.331Z,101389.66
2023-03-16T22:11:49.355Z,101393.77
2023-03-16T22:15:17.444Z,101392.96
2023-03-16T22:18:45.868Z,101393.48
2023-03-16T22:22:17.375Z,101399.65
2023-03-16T22:25:44.316Z,101399.35
2023-03-16T22:29:21.981Z,101409.25
2023-03-16T22:32:51.366Z,101420.45
2023-03-16T22:36:21.135Z,101418.73
2023-03-16T22:39:48.539Z,101418.10
2023-03-16T22:43:19.101Z,101410.48
2023-03-16T22:46:46.136Z,101395.73
2023-03-16T22:50:17.946Z,101385.23
2023-03-16T22:53:48.366Z,101375.27
2023-03-16T22:57:17.877Z,101376.21
2023-03-16T23:00:45.442Z,101369.29
2023-03-16T23:04:19.233Z,101367.38
2023-03-16T23:07:46.771Z,101377.77
2023-03-16T23:11:17.907Z,101387.04
2023-03-16T23:14:44.820Z,101402.42
2023-03-16T23:18:18.203Z,101400.82
2023-03-16T23:21:45.161Z,101397.37
2023-03-16T23:25:12.402Z,101393.60
2023-03-16T23:28:39.372Z,101390.98
2023-03-16T23:32:06.842Z,101379.39
2023-03-16T23:35:34.091Z,101377.08
2023-03-16T23:39:01.089Z,101377.01
2023-03-16T23:42:28.023Z,101372.89
2023-03-16T23:45:55.001Z,101370.88
2023-03-16T23:49:24.952Z,101371.81
2023-03-16T23:52:52.073Z,101363.91
2023-03-16T23:56:19.129Z,101366.56
2023-03-16T23:59:46.103Z,101370.78
